sensor_id;sensor_type;location;lat;lon;timestamp;P1;durP1;ratioP1;P2;durP2;ratioP2
70667;SDS011;58242;51.250;-1.118;2024-01-16T00:00:22;4.38;;;3.45;;
70667;SDS011;58242;51.250;-1.118;2024-01-16T00:02:47;3.45;;;3.15;;
70667;SDS011;58242;51.250;-1.118;2024-01-16T00:05:13;3.75;;;3.40;;
70667;SDS011;58242;51.250;-1.118;2024-01-16T00:07:39;4.82;;;3.67;;
70667;SDS011;58242;51.250;-1.118;2024-01-16T00:10:06;4.15;;;3.55;;
70667;SDS011;58242;51.250;-1.118;2024-01-16T00:12:33;5.57;;;3.72;;
70667;SDS011;58242;51.250;-1.118;2024-01-16T00:14:58;4.38;;;3.65;;
70667;SDS011;58242;51.250;-1.118;2024-01-16T00:17:23;6.05;;;3.92;;
70667;SDS011;58242;51.250;-1.118;2024-01-16T00:19:49;4.57;;;3.70;;
70667;SDS011;58242;51.250;-1.118;2024-01-16T00:22:14;4.95;;;4.45;;
70667;SDS011;58242;51.250;-1.118;2024-01-16T00:24:40;5.40;;;4.15;;
70667;SDS011;58242;51.250;-1.118;2024-01-16T00:27:05;6.47;;;4.10;;
70667;SDS011;58242;51.250;-1.118;2024-01-16T00:29:30;6.68;;;4.20;;
70667;SDS011;58242;51.250;-1.118;2024-01-16T00:31:56;5.03;;;4.53;;
70667;SDS011;58242;51.250;-1.118;2024-01-16T00:34:21;4.60;;;4.20;;
70667;SDS011;58242;51.250;-1.118;2024-01-16T00:36:47;5.40;;;4.32;;
70667;SDS011;58242;51.250;-1.118;2024-01-16T00:39:12;5.40;;;4.30;;
70667;SDS011;58242;51.250;-1.118;2024-01-16T00:41:38;4.95;;;4.47;;
70667;SDS011;58242;51.250;-1.118;2024-01-16T00:44:04;5.68;;;4.05;;
70667;SDS011;58242;51.250;-1.118;2024-01-16T00:46:29;4.85;;;4.10;;
70667;SDS011;58242;51.250;-1.118;2024-01-16T00:48:55;4.47;;;4.07;;
70667;SDS011;58242;51.250;-1.118;2024-01-16T00:51:20;4.78;;;4.15;;
70667;SDS011;58242;51.250;-1.118;2024-01-16T00:53:46;4.85;;;4.35;;
70667;SDS011;58242;51.250;-1.118;2024-01-16T00:56:12;5.88;;;4.05;;
70667;SDS011;58242;51.250;-1.118;2024-01-16T00:58:37;4.45;;;3.88;;
70667;SDS011;58242;51.250;-1.118;2024-01-16T01:01:03;7.10;;;4.75;;
70667;SDS011;58242;51.250;-1.118;2024-01-16T01:03:28;5.82;;;4.53;;
70667;SDS011;58242;51.250;-1.118;2024-01-16T01:05:54;4.63;;;4.22;;
70667;SDS011;58242;51.250;-1.118;2024-01-16T01:08:20;5.20;;;3.90;;
70667;SDS011;58242;51.250;-1.118;2024-01-16T01:10:45;4.80;;;4.03;;
70667;SDS011;58242;51.250;-1.118;2024-01-16T01:13:11;5.32;;;4.07;;
70667;SDS011;58242;51.250;-1.118;2024-01-16T01:15:36;6.80;;;4.57;;
70667;SDS011;58242;51.250;-1.118;2024-01-16T01:18:01;7.85;;;4.30;;
70667;SDS011;58242;51.250;-1.118;2024-01-16T01:20:27;6.03;;;4.35;;
70667;SDS011;58242;51.250;-1.118;2024-01-16T01:22:52;5.07;;;4.57;;
70667;SDS011;58242;51.250;-1.118;2024-01-16T01:25:18;6.70;;;4.53;;
70667;SDS011;58242;51.250;-1.118;2024-01-16T01:27:43;4.20;;;3.80;;
70667;SDS011;58242;51.250;-1.118;2024-01-16T01:30:10;4.90;;;3.97;;
70667;SDS011;58242;51.250;-1.118;2024-01-16T01:32:36;5.53;;;4.97;;
70667;SDS011;58242;51.250;-1.118;2024-01-16T01:35:01;5.88;;;4.22;;
70667;SDS011;58242;51.250;-1.118;2024-01-16T01:37:27;6.68;;;4.07;;
70667;SDS011;58242;51.250;-1.118;2024-01-16T01:39:52;4.75;;;4.28;;
70667;SDS011;58242;51.250;-1.118;2024-01-16T01:42:18;4.43;;;4.03;;
70667;SDS011;58242;51.250;-1.118;2024-01-16T01:44:43;5.22;;;4.40;;
70667;SDS011;58242;51.250;-1.118;2024-01-16T01:47:08;7.25;;;4.78;;
70667;SDS011;58242;51.250;-1.118;2024-01-16T01:49:34;9.95;;;5.50;;
70667;SDS011;58242;51.250;-1.118;2024-01-16T01:52:01;8.68;;;5.68;;
70667;SDS011;58242;51.250;-1.118;2024-01-16T01:54:28;12.05;;;6.97;;
70667;SDS011;58242;51.250;-1.118;2024-01-16T01:56:55;10.57;;;6.40;;
70667;SDS011;58242;51.250;-1.118;2024-01-16T01:59:20;6.68;;;5.28;;
70667;SDS011;58242;51.250;-1.118;2024-01-16T02:01:48;6.57;;;5.28;;
70667;SDS011;58242;51.250;-1.118;2024-01-16T02:04:17;7.50;;;5.00;;
70667;SDS011;58242;51.250;-1.118;2024-01-16T02:06:44;6.28;;;4.97;;
70667;SDS011;58242;51.250;-1.118;2024-01-16T02:09:09;5.65;;;5.00;;
70667;SDS011;58242;51.250;-1.118;2024-01-16T02:11:38;8.30;;;4.18;;
70667;SDS011;58242;51.250;-1.118;2024-01-16T02:16:36;6.47;;;4.70;;
70667;SDS011;58242;51.250;-1.118;2024-01-16T02:19:03;5.05;;;3.88;;
70667;SDS011;58242;51.250;-1.118;2024-01-16T02:21:29;4.10;;;3.72;;
70667;SDS011;58242;51.250;-1.118;2024-01-16T02:24:01;4.75;;;4.30;;
70667;SDS011;58242;51.250;-1.118;2024-01-16T02:26:27;4.38;;;4.03;;
70667;SDS011;58242;51.250;-1.118;2024-01-16T02:28:52;4.63;;;4.20;;
70667;SDS011;58242;51.250;-1.118;2024-01-16T02:31:18;4.45;;;4.05;;
70667;SDS011;58242;51.250;-1.118;2024-01-16T02:33:44;5.05;;;4.57;;
70667;SDS011;58242;51.250;-1.118;2024-01-16T02:36:09;5.97;;;4.28;;
70667;SDS011;58242;51.250;-1.118;2024-01-16T02:38:34;4.82;;;4.43;;
70667;SDS011;58242;51.250;-1.118;2024-01-16T02:41:00;4.65;;;4.25;;
70667;SDS011;58242;51.250;-1.118;2024-01-16T02:43:25;4.55;;;4.15;;
70667;SDS011;58242;51.250;-1.118;2024-01-16T02:45:51;4.85;;;4.35;;
70667;SDS011;58242;51.250;-1.118;2024-01-16T02:48:18;4.10;;;3.80;;
70667;SDS011;58242;51.250;-1.118;2024-01-16T02:50:43;5.20;;;4.70;;
70667;SDS011;58242;51.250;-1.118;2024-01-16T02:53:08;5.45;;;4.93;;
70667;SDS011;58242;51.250;-1.118;2024-01-16T02:55:34;4.47;;;4.18;;
70667;SDS011;58242;51.250;-1.118;2024-01-16T02:57:59;5.05;;;4.63;;
70667;SDS011;58242;51.250;-1.118;2024-01-16T03:00:24;5.57;;;4.57;;
70667;SDS011;58242;51.250;-1.118;2024-01-16T03:02:49;7.63;;;4.80;;
70667;SDS011;58242;51.250;-1.118;2024-01-16T03:05:15;5.78;;;5.05;;
70667;SDS011;58242;51.250;-1.118;2024-01-16T03:07:41;4.70;;;4.25;;
70667;SDS011;58242;51.250;-1.118;2024-01-16T03:10:06;6.18;;;4.97;;
70667;SDS011;58242;51.250;-1.118;2024-01-16T03:12:32;5.40;;;4.95;;
70667;SDS011;58242;51.250;-1.118;2024-01-16T03:14:57;5.00;;;4.47;;
70667;SDS011;58242;51.250;-1.118;2024-01-16T03:17:23;5.85;;;4.70;;
70667;SDS011;58242;51.250;-1.118;2024-01-16T03:19:48;6.13;;;4.88;;
70667;SDS011;58242;51.250;-1.118;2024-01-16T03:22:13;5.85;;;4.60;;
70667;SDS011;58242;51.250;-1.118;2024-01-16T03:24:39;5.78;;;4.80;;
70667;SDS011;58242;51.250;-1.118;2024-01-16T03:27:04;5.20;;;4.80;;
70667;SDS011;58242;51.250;-1.118;2024-01-16T03:29:29;4.93;;;4.43;;
70667;SDS011;58242;51.250;-1.118;2024-01-16T03:31:55;6.50;;;4.32;;
70667;SDS011;58242;51.250;-1.118;2024-01-16T03:34:20;5.15;;;4.45;;
70667;SDS011;58242;51.250;-1.118;2024-01-16T03:36:46;4.70;;;4.32;;
70667;SDS011;58242;51.250;-1.118;2024-01-16T03:39:11;5.15;;;4.65;;
70667;SDS011;58242;51.250;-1.118;2024-01-16T03:41:37;5.25;;;4.75;;
70667;SDS011;58242;51.250;-1.118;2024-01-16T03:44:02;6.38;;;5.65;;
70667;SDS011;58242;51.250;-1.118;2024-01-16T03:46:28;6.13;;;5.32;;
70667;SDS011;58242;51.250;-1.118;2024-01-16T03:48:54;8.00;;;5.07;;
70667;SDS011;58242;51.250;-1.118;2024-01-16T03:51:19;5.03;;;4.28;;
70667;SDS011;58242;51.250;-1.118;2024-01-16T03:53:45;4.55;;;3.83;;
70667;SDS011;58242;51.250;-1.118;2024-01-16T03:56:11;4.25;;;3.95;;
70667;SDS011;58242;51.250;-1.118;2024-01-16T03:58:37;4.63;;;4.13;;
70667;SDS011;58242;51.250;-1.118;2024-01-16T04:01:02;4.80;;;4.40;;
70667;SDS011;58242;51.250;-1.118;2024-01-16T04:03:27;4.78;;;4.47;;
70667;SDS011;58242;51.250;-1.118;2024-01-16T04:05:53;4.65;;;4.25;;
70667;SDS011;58242;51.250;-1.118;2024-01-16T04:08:18;4.97;;;4.57;;
70667;SDS011;58242;51.250;-1.118;2024-01-16T04:10:43;5.35;;;4.78;;
70667;SDS011;58242;51.250;-1.118;2024-01-16T04:13:09;4.63;;;4.22;;
70667;SDS011;58242;51.250;-1.118;2024-01-16T04:15:37;6.68;;;4.25;;
70667;SDS011;58242;51.250;-1.118;2024-01-16T04:18:03;4.57;;;4.22;;
70667;SDS011;58242;51.250;-1.118;2024-01-16T04:20:29;4.43;;;4.00;;
70667;SDS011;58242;51.250;-1.118;2024-01-16T04:22:54;6.10;;;4.07;;
70667;SDS011;58242;51.250;-1.118;2024-01-16T04:25:21;4.78;;;4.28;;
70667;SDS011;58242;51.250;-1.118;2024-01-16T04:27:46;4.60;;;4.30;;
70667;SDS011;58242;51.250;-1.118;2024-01-16T04:30:12;5.65;;;4.60;;
70667;SDS011;58242;51.250;-1.118;2024-01-16T04:32:37;4.55;;;4.13;;
70667;SDS011;58242;51.250;-1.118;2024-01-16T04:35:03;3.92;;;3.72;;
70667;SDS011;58242;51.250;-1.118;2024-01-16T04:37:29;4.10;;;3.80;;
70667;SDS011;58242;51.250;-1.118;2024-01-16T04:39:54;5.25;;;4.50;;
70667;SDS011;58242;51.250;-1.118;2024-01-16T04:42:19;4.63;;;3.97;;
70667;SDS011;58242;51.250;-1.118;2024-01-16T04:44:45;5.25;;;4.85;;
70667;SDS011;58242;51.250;-1.118;2024-01-16T04:47:10;4.70;;;4.25;;
70667;SDS011;58242;51.250;-1.118;2024-01-16T04:49:36;5.40;;;4.78;;
70667;SDS011;58242;51.250;-1.118;2024-01-16T04:52:02;4.65;;;4.25;;
70667;SDS011;58242;51.250;-1.118;2024-01-16T04:54:28;5.05;;;4.65;;
70667;SDS011;58242;51.250;-1.118;2024-01-16T04:56:53;4.75;;;4.35;;
70667;SDS011;58242;51.250;-1.118;2024-01-16T04:59:19;4.93;;;4.32;;
70667;SDS011;58242;51.250;-1.118;2024-01-16T05:01:44;5.18;;;4.72;;
70667;SDS011;58242;51.250;-1.118;2024-01-16T05:04:09;6.78;;;5.07;;
70667;SDS011;58242;51.250;-1.118;2024-01-16T05:06:35;4.93;;;4.53;;
70667;SDS011;58242;51.250;-1.118;2024-01-16T05:09:00;4.97;;;4.57;;
70667;SDS011;58242;51.250;-1.118;2024-01-16T05:11:26;4.97;;;4.55;;
70667;SDS011;58242;51.250;-1.118;2024-01-16T05:13:51;5.00;;;4.53;;
70667;SDS011;58242;51.250;-1.118;2024-01-16T05:16:22;4.72;;;4.32;;
70667;SDS011;58242;51.250;-1.118;2024-01-16T05:18:49;5.25;;;4.85;;
70667;SDS011;58242;51.250;-1.118;2024-01-16T05:21:14;5.75;;;4.72;;
70667;SDS011;58242;51.250;-1.118;2024-01-16T05:23:40;5.10;;;4.70;;
70667;SDS011;58242;51.250;-1.118;2024-01-16T05:26:05;5.00;;;4.47;;
70667;SDS011;58242;51.250;-1.118;2024-01-16T05:28:30;5.65;;;4.47;;
70667;SDS011;58242;51.250;-1.118;2024-01-16T05:30:56;6.45;;;4.38;;
70667;SDS011;58242;51.250;-1.118;2024-01-16T05:33:21;5.15;;;4.65;;
70667;SDS011;58242;51.250;-1.118;2024-01-16T05:35:46;4.63;;;4.28;;
70667;SDS011;58242;51.250;-1.118;2024-01-16T05:38:12;4.60;;;4.20;;
70667;SDS011;58242;51.250;-1.118;2024-01-16T05:40:37;4.18;;;3.88;;
70667;SDS011;58242;51.250;-1.118;2024-01-16T05:43:03;4.72;;;4.32;;
70667;SDS011;58242;51.250;-1.118;2024-01-16T05:45:28;4.20;;;3.92;;
70667;SDS011;58242;51.250;-1.118;2024-01-16T05:47:54;4.50;;;4.13;;
70667;SDS011;58242;51.250;-1.118;2024-01-16T05:50:19;4.15;;;3.85;;
70667;SDS011;58242;51.250;-1.118;2024-01-16T05:52:44;4.88;;;4.40;;
70667;SDS011;58242;51.250;-1.118;2024-01-16T05:55:10;4.53;;;4.15;;
70667;SDS011;58242;51.250;-1.118;2024-01-16T05:57:36;4.95;;;4.55;;
70667;SDS011;58242;51.250;-1.118;2024-01-16T06:00:02;5.15;;;4.65;;
70667;SDS011;58242;51.250;-1.118;2024-01-16T06:02:30;5.93;;;4.95;;
70667;SDS011;58242;51.250;-1.118;2024-01-16T06:04:55;4.75;;;4.32;;
70667;SDS011;58242;51.250;-1.118;2024-01-16T06:07:21;6.13;;;5.05;;
70667;SDS011;58242;51.250;-1.118;2024-01-16T06:09:46;5.22;;;4.82;;
70667;SDS011;58242;51.250;-1.118;2024-01-16T06:12:12;5.32;;;4.80;;
70667;SDS011;58242;51.250;-1.118;2024-01-16T06:14:37;4.50;;;4.20;;
70667;SDS011;58242;51.250;-1.118;2024-01-16T06:17:03;5.47;;;4.90;;
70667;SDS011;58242;51.250;-1.118;2024-01-16T06:19:30;5.97;;;5.20;;
70667;SDS011;58242;51.250;-1.118;2024-01-16T06:21:56;4.95;;;4.55;;
70667;SDS011;58242;51.250;-1.118;2024-01-16T06:24:21;4.78;;;4.38;;
70667;SDS011;58242;51.250;-1.118;2024-01-16T06:26:47;5.57;;;4.80;;
70667;SDS011;58242;51.250;-1.118;2024-01-16T06:29:12;4.28;;;3.92;;
70667;SDS011;58242;51.250;-1.118;2024-01-16T06:31:37;4.90;;;4.47;;
70667;SDS011;58242;51.250;-1.118;2024-01-16T06:34:03;4.88;;;4.47;;
70667;SDS011;58242;51.250;-1.118;2024-01-16T06:36:28;5.57;;;5.03;;
70667;SDS011;58242;51.250;-1.118;2024-01-16T06:38:54;4.53;;;4.13;;
70667;SDS011;58242;51.250;-1.118;2024-01-16T06:41:19;5.47;;;4.95;;
70667;SDS011;58242;51.250;-1.118;2024-01-16T06:43:46;4.10;;;3.78;;
70667;SDS011;58242;51.250;-1.118;2024-01-16T06:46:11;4.85;;;4.25;;
70667;SDS011;58242;51.250;-1.118;2024-01-16T06:48:37;4.70;;;4.25;;
70667;SDS011;58242;51.250;-1.118;2024-01-16T06:51:03;4.53;;;4.18;;
70667;SDS011;58242;51.250;-1.118;2024-01-16T06:53:29;5.38;;;4.85;;
70667;SDS011;58242;51.250;-1.118;2024-01-16T06:55:56;4.95;;;4.45;;
70667;SDS011;58242;51.250;-1.118;2024-01-16T06:58:21;5.68;;;4.60;;
70667;SDS011;58242;51.250;-1.118;2024-01-16T07:00:47;5.15;;;4.70;;
70667;SDS011;58242;51.250;-1.118;2024-01-16T07:03:12;4.75;;;4.35;;
70667;SDS011;58242;51.250;-1.118;2024-01-16T07:05:38;4.63;;;4.22;;
70667;SDS011;58242;51.250;-1.118;2024-01-16T07:08:06;5.32;;;4.93;;
70667;SDS011;58242;51.250;-1.118;2024-01-16T07:10:31;5.05;;;4.55;;
70667;SDS011;58242;51.250;-1.118;2024-01-16T07:12:57;5.60;;;5.10;;
70667;SDS011;58242;51.250;-1.118;2024-01-16T07:15:23;4.57;;;4.18;;
70667;SDS011;58242;51.250;-1.118;2024-01-16T07:17:48;6.22;;;5.72;;
70667;SDS011;58242;51.250;-1.118;2024-01-16T07:20:13;6.07;;;5.63;;
70667;SDS011;58242;51.250;-1.118;2024-01-16T07:22:39;5.57;;;5.03;;
70667;SDS011;58242;51.250;-1.118;2024-01-16T07:25:05;5.72;;;5.18;;
70667;SDS011;58242;51.250;-1.118;2024-01-16T07:27:31;5.10;;;4.78;;
70667;SDS011;58242;51.250;-1.118;2024-01-16T07:29:56;5.68;;;4.93;;
70667;SDS011;58242;51.250;-1.118;2024-01-16T07:32:21;5.20;;;4.68;;
70667;SDS011;58242;51.250;-1.118;2024-01-16T07:34:47;5.63;;;5.13;;
70667;SDS011;58242;51.250;-1.118;2024-01-16T07:37:12;6.55;;;5.40;;
70667;SDS011;58242;51.250;-1.118;2024-01-16T07:39:38;5.05;;;4.65;;
70667;SDS011;58242;51.250;-1.118;2024-01-16T07:42:03;6.50;;;5.90;;
70667;SDS011;58242;51.250;-1.118;2024-01-16T07:44:29;5.82;;;5.40;;
70667;SDS011;58242;51.250;-1.118;2024-01-16T07:46:54;5.93;;;5.43;;
70667;SDS011;58242;51.250;-1.118;2024-01-16T07:49:19;7.03;;;5.28;;
70667;SDS011;58242;51.250;-1.118;2024-01-16T07:51:45;6.10;;;5.60;;
70667;SDS011;58242;51.250;-1.118;2024-01-16T07:54:10;5.68;;;5.18;;
70667;SDS011;58242;51.250;-1.118;2024-01-16T07:56:38;5.60;;;5.10;;
70667;SDS011;58242;51.250;-1.118;2024-01-16T07:59:03;5.55;;;5.05;;
70667;SDS011;58242;51.250;-1.118;2024-01-16T08:01:29;5.65;;;5.22;;
70667;SDS011;58242;51.250;-1.118;2024-01-16T08:03:54;6.43;;;5.85;;
70667;SDS011;58242;51.250;-1.118;2024-01-16T08:06:20;6.60;;;6.00;;
70667;SDS011;58242;51.250;-1.118;2024-01-16T08:08:46;6.55;;;5.32;;
70667;SDS011;58242;51.250;-1.118;2024-01-16T08:11:12;6.38;;;5.78;;
70667;SDS011;58242;51.250;-1.118;2024-01-16T08:13:37;6.32;;;5.70;;
70667;SDS011;58242;51.250;-1.118;2024-01-16T08:16:03;6.60;;;5.97;;
70667;SDS011;58242;51.250;-1.118;2024-01-16T08:18:29;5.82;;;5.32;;
70667;SDS011;58242;51.250;-1.118;2024-01-16T08:20:56;7.80;;;5.63;;
70667;SDS011;58242;51.250;-1.118;2024-01-16T08:23:22;7.47;;;6.40;;
70667;SDS011;58242;51.250;-1.118;2024-01-16T08:25:47;5.72;;;5.22;;
70667;SDS011;58242;51.250;-1.118;2024-01-16T08:28:13;6.22;;;5.53;;
70667;SDS011;58242;51.250;-1.118;2024-01-16T08:30:38;8.80;;;7.22;;
70667;SDS011;58242;51.250;-1.118;2024-01-16T08:33:03;8.27;;;6.07;;
70667;SDS011;58242;51.250;-1.118;2024-01-16T08:35:29;6.18;;;5.15;;
70667;SDS011;58242;51.250;-1.118;2024-01-16T08:37:54;7.07;;;5.82;;
70667;SDS011;58242;51.250;-1.118;2024-01-16T08:40:19;5.97;;;5.38;;
70667;SDS011;58242;51.250;-1.118;2024-01-16T08:42:45;5.90;;;5.28;;
70667;SDS011;58242;51.250;-1.118;2024-01-16T08:45:10;5.95;;;5.35;;
70667;SDS011;58242;51.250;-1.118;2024-01-16T08:47:36;5.82;;;4.82;;
70667;SDS011;58242;51.250;-1.118;2024-01-16T08:50:02;5.72;;;5.07;;
70667;SDS011;58242;51.250;-1.118;2024-01-16T08:52:27;5.18;;;4.40;;
70667;SDS011;58242;51.250;-1.118;2024-01-16T08:54:53;5.82;;;4.15;;
70667;SDS011;58242;51.250;-1.118;2024-01-16T08:57:18;4.15;;;3.85;;
70667;SDS011;58242;51.250;-1.118;2024-01-16T08:59:43;5.55;;;5.05;;
70667;SDS011;58242;51.250;-1.118;2024-01-16T09:02:09;4.50;;;4.18;;
70667;SDS011;58242;51.250;-1.118;2024-01-16T09:04:34;4.43;;;4.03;;
70667;SDS011;58242;51.250;-1.118;2024-01-16T09:06:59;3.80;;;3.50;;
70667;SDS011;58242;51.250;-1.118;2024-01-16T09:09:25;3.45;;;3.15;;
70667;SDS011;58242;51.250;-1.118;2024-01-16T09:11:50;3.30;;;3.10;;
70667;SDS011;58242;51.250;-1.118;2024-01-16T09:14:16;3.33;;;3.13;;
70667;SDS011;58242;51.250;-1.118;2024-01-16T09:16:41;4.03;;;3.40;;
70667;SDS011;58242;51.250;-1.118;2024-01-16T09:19:07;3.42;;;3.15;;
70667;SDS011;58242;51.250;-1.118;2024-01-16T09:21:34;3.35;;;3.10;;
70667;SDS011;58242;51.250;-1.118;2024-01-16T09:23:59;2.90;;;2.70;;
70667;SDS011;58242;51.250;-1.118;2024-01-16T09:26:25;5.72;;;3.80;;
70667;SDS011;58242;51.250;-1.118;2024-01-16T09:28:50;3.50;;;3.30;;
70667;SDS011;58242;51.250;-1.118;2024-01-16T09:31:15;3.13;;;2.90;;
70667;SDS011;58242;51.250;-1.118;2024-01-16T09:33:41;2.85;;;2.75;;
70667;SDS011;58242;51.250;-1.118;2024-01-16T09:36:08;2.70;;;2.60;;
70667;SDS011;58242;51.250;-1.118;2024-01-16T09:38:34;2.60;;;2.50;;
70667;SDS011;58242;51.250;-1.118;2024-01-16T09:40:59;3.53;;;3.13;;
70667;SDS011;58242;51.250;-1.118;2024-01-16T09:43:28;2.58;;;2.47;;
70667;SDS011;58242;51.250;-1.118;2024-01-16T09:45:55;2.92;;;2.78;;
70667;SDS011;58242;51.250;-1.118;2024-01-16T09:48:21;2.72;;;2.60;;
70667;SDS011;58242;51.250;-1.118;2024-01-16T09:50:46;5.32;;;3.10;;
70667;SDS011;58242;51.250;-1.118;2024-01-16T09:53:12;3.15;;;2.97;;
70667;SDS011;58242;51.250;-1.118;2024-01-16T09:55:37;2.85;;;2.70;;
70667;SDS011;58242;51.250;-1.118;2024-01-16T09:58:03;2.70;;;2.50;;
70667;SDS011;58242;51.250;-1.118;2024-01-16T10:00:30;2.67;;;2.47;;
70667;SDS011;58242;51.250;-1.118;2024-01-16T10:02:57;4.85;;;2.85;;
70667;SDS011;58242;51.250;-1.118;2024-01-16T10:05:24;2.85;;;2.60;;
70667;SDS011;58242;51.250;-1.118;2024-01-16T10:07:50;2.80;;;2.63;;
70667;SDS011;58242;51.250;-1.118;2024-01-16T10:10:16;3.45;;;3.25;;
70667;SDS011;58242;51.250;-1.118;2024-01-16T10:12:43;3.38;;;3.17;;
70667;SDS011;58242;51.250;-1.118;2024-01-16T10:15:09;3.05;;;2.92;;
70667;SDS011;58242;51.250;-1.118;2024-01-16T10:17:38;3.30;;;3.10;;
70667;SDS011;58242;51.250;-1.118;2024-01-16T10:20:04;4.20;;;3.78;;
70667;SDS011;58242;51.250;-1.118;2024-01-16T10:22:30;4.32;;;3.80;;
70667;SDS011;58242;51.250;-1.118;2024-01-16T10:25:12;4.03;;;3.83;;
70667;SDS011;58242;51.250;-1.118;2024-01-16T10:27:41;3.92;;;3.63;;
70667;SDS011;58242;51.250;-1.118;2024-01-16T10:30:08;4.00;;;3.75;;
70667;SDS011;58242;51.250;-1.118;2024-01-16T10:32:35;3.72;;;3.42;;
70667;SDS011;58242;51.250;-1.118;2024-01-16T10:35:08;3.40;;;3.20;;
70667;SDS011;58242;51.250;-1.118;2024-01-16T10:37:51;3.75;;;3.45;;
70667;SDS011;58242;51.250;-1.118;2024-01-16T10:40:19;3.58;;;3.38;;
70667;SDS011;58242;51.250;-1.118;2024-01-16T10:43:06;3.50;;;3.30;;
70667;SDS011;58242;51.250;-1.118;2024-01-16T10:45:32;3.05;;;2.85;;
70667;SDS011;58242;51.250;-1.118;2024-01-16T10:48:06;3.20;;;2.92;;
70667;SDS011;58242;51.250;-1.118;2024-01-16T10:50:32;3.58;;;3.28;;
70667;SDS011;58242;51.250;-1.118;2024-01-16T10:53:05;3.15;;;3.00;;
70667;SDS011;58242;51.250;-1.118;2024-01-16T10:55:31;3.40;;;2.85;;
70667;SDS011;58242;51.250;-1.118;2024-01-16T10:58:03;3.38;;;3.22;;
70667;SDS011;58242;51.250;-1.118;2024-01-16T11:00:31;3.53;;;3.10;;
70667;SDS011;58242;51.250;-1.118;2024-01-16T11:05:33;3.55;;;3.25;;
70667;SDS011;58242;51.250;-1.118;2024-01-16T11:07:59;3.40;;;3.13;;
70667;SDS011;58242;51.250;-1.118;2024-01-16T11:10:28;3.38;;;3.17;;
70667;SDS011;58242;51.250;-1.118;2024-01-16T11:12:55;3.33;;;3.10;;
70667;SDS011;58242;51.250;-1.118;2024-01-16T11:15:25;3.13;;;2.80;;
70667;SDS011;58242;51.250;-1.118;2024-01-16T11:17:53;3.22;;;3.03;;
70667;SDS011;58242;51.250;-1.118;2024-01-16T11:22:48;2.90;;;2.75;;
70667;SDS011;58242;51.250;-1.118;2024-01-16T11:25:16;3.45;;;2.65;;
70667;SDS011;58242;51.250;-1.118;2024-01-16T11:27:43;4.50;;;3.08;;
70667;SDS011;58242;51.250;-1.118;2024-01-16T11:30:13;2.88;;;2.50;;
70667;SDS011;58242;51.250;-1.118;2024-01-16T11:32:54;2.97;;;2.70;;
70667;SDS011;58242;51.250;-1.118;2024-01-16T11:35:31;3.47;;;2.80;;
70667;SDS011;58242;51.250;-1.118;2024-01-16T11:38:03;2.60;;;2.50;;
70667;SDS011;58242;51.250;-1.118;2024-01-16T11:40:33;2.88;;;2.67;;
70667;SDS011;58242;51.250;-1.118;2024-01-16T11:42:58;3.05;;;2.85;;
70667;SDS011;58242;51.250;-1.118;2024-01-16T11:46:00;2.63;;;2.42;;
70667;SDS011;58242;51.250;-1.118;2024-01-16T11:48:26;4.72;;;3.47;;
70667;SDS011;58242;51.250;-1.118;2024-01-16T11:50:52;3.53;;;2.95;;
70667;SDS011;58242;51.250;-1.118;2024-01-16T11:56:08;4.22;;;2.95;;
70667;SDS011;58242;51.250;-1.118;2024-01-16T12:01:44;2.70;;;2.50;;
70667;SDS011;58242;51.250;-1.118;2024-01-16T12:04:10;3.17;;;2.97;;
70667;SDS011;58242;51.250;-1.118;2024-01-16T12:06:35;3.42;;;3.20;;
70667;SDS011;58242;51.250;-1.118;2024-01-16T12:11:42;3.10;;;2.80;;
70667;SDS011;58242;51.250;-1.118;2024-01-16T12:14:10;3.30;;;3.00;;
70667;SDS011;58242;51.250;-1.118;2024-01-16T12:16:38;3.20;;;3.00;;
70667;SDS011;58242;51.250;-1.118;2024-01-16T12:19:06;3.30;;;3.10;;
70667;SDS011;58242;51.250;-1.118;2024-01-16T12:21:42;3.20;;;3.00;;
70667;SDS011;58242;51.250;-1.118;2024-01-16T12:24:09;3.00;;;2.90;;
70667;SDS011;58242;51.250;-1.118;2024-01-16T12:26:35;3.20;;;3.00;;
70667;SDS011;58242;51.250;-1.118;2024-01-16T12:29:01;3.10;;;3.00;;
70667;SDS011;58242;51.250;-1.118;2024-01-16T12:31:27;2.97;;;2.83;;
70667;SDS011;58242;51.250;-1.118;2024-01-16T12:33:54;2.88;;;2.78;;
70667;SDS011;58242;51.250;-1.118;2024-01-16T12:36:29;3.22;;;3.03;;
70667;SDS011;58242;51.250;-1.118;2024-01-16T12:38:54;3.05;;;2.75;;
70667;SDS011;58242;51.250;-1.118;2024-01-16T12:41:21;2.92;;;2.80;;
70667;SDS011;58242;51.250;-1.118;2024-01-16T12:43:51;2.60;;;2.50;;
70667;SDS011;58242;51.250;-1.118;2024-01-16T12:46:16;2.90;;;2.80;;
70667;SDS011;58242;51.250;-1.118;2024-01-16T12:48:45;2.85;;;2.67;;
70667;SDS011;58242;51.250;-1.118;2024-01-16T12:51:12;3.22;;;3.13;;
70667;SDS011;58242;51.250;-1.118;2024-01-16T12:53:45;3.63;;;3.30;;
70667;SDS011;58242;51.250;-1.118;2024-01-16T12:56:11;3.17;;;3.08;;
70667;SDS011;58242;51.250;-1.118;2024-01-16T12:58:37;3.78;;;3.40;;
70667;SDS011;58242;51.250;-1.118;2024-01-16T13:03:51;3.20;;;3.00;;
70667;SDS011;58242;51.250;-1.118;2024-01-16T13:06:17;2.97;;;2.78;;
70667;SDS011;58242;51.250;-1.118;2024-01-16T13:11:14;2.88;;;2.67;;
70667;SDS011;58242;51.250;-1.118;2024-01-16T13:13:46;2.80;;;2.70;;
70667;SDS011;58242;51.250;-1.118;2024-01-16T13:16:13;3.00;;;2.80;;
70667;SDS011;58242;51.250;-1.118;2024-01-16T13:18:38;2.88;;;2.67;;
70667;SDS011;58242;51.250;-1.118;2024-01-16T13:21:04;2.55;;;2.42;;
70667;SDS011;58242;51.250;-1.118;2024-01-16T13:23:29;3.42;;;3.22;;
70667;SDS011;58242;51.250;-1.118;2024-01-16T13:25:55;3.88;;;2.95;;
70667;SDS011;58242;51.250;-1.118;2024-01-16T13:28:22;2.80;;;2.70;;
70667;SDS011;58242;51.250;-1.118;2024-01-16T13:30:48;2.85;;;2.65;;
70667;SDS011;58242;51.250;-1.118;2024-01-16T13:33:14;3.05;;;2.85;;
70667;SDS011;58242;51.250;-1.118;2024-01-16T13:38:14;3.22;;;3.03;;
70667;SDS011;58242;51.250;-1.118;2024-01-16T13:40:41;3.17;;;3.00;;
70667;SDS011;58242;51.250;-1.118;2024-01-16T13:43:06;3.58;;;3.33;;
70667;SDS011;58242;51.250;-1.118;2024-01-16T13:45:32;2.97;;;2.78;;
70667;SDS011;58242;51.250;-1.118;2024-01-16T13:47:59;3.25;;;3.05;;
70667;SDS011;58242;51.250;-1.118;2024-01-16T13:50:26;2.75;;;2.65;;
70667;SDS011;58242;51.250;-1.118;2024-01-16T13:52:51;3.42;;;3.13;;
70667;SDS011;58242;51.250;-1.118;2024-01-16T13:55:17;3.47;;;3.17;;
70667;SDS011;58242;51.250;-1.118;2024-01-16T13:57:43;3.50;;;3.30;;
70667;SDS011;58242;51.250;-1.118;2024-01-16T14:00:10;2.83;;;2.63;;
70667;SDS011;58242;51.250;-1.118;2024-01-16T14:02:38;3.20;;;3.00;;
70667;SDS011;58242;51.250;-1.118;2024-01-16T14:05:06;3.17;;;2.88;;
70667;SDS011;58242;51.250;-1.118;2024-01-16T14:07:35;3.22;;;3.00;;
70667;SDS011;58242;51.250;-1.118;2024-01-16T14:10:01;3.33;;;3.03;;
70667;SDS011;58242;51.250;-1.118;2024-01-16T14:12:26;6.05;;;3.20;;
70667;SDS011;58242;51.250;-1.118;2024-01-16T14:14:51;3.30;;;3.05;;
70667;SDS011;58242;51.250;-1.118;2024-01-16T14:17:17;3.25;;;3.03;;
70667;SDS011;58242;51.250;-1.118;2024-01-16T14:19:42;3.15;;;2.95;;
70667;SDS011;58242;51.250;-1.118;2024-01-16T14:22:08;3.20;;;3.00;;
70667;SDS011;58242;51.250;-1.118;2024-01-16T14:24:33;3.33;;;3.13;;
70667;SDS011;58242;51.250;-1.118;2024-01-16T14:26:59;3.65;;;2.95;;
70667;SDS011;58242;51.250;-1.118;2024-01-16T14:29:24;4.07;;;2.88;;
70667;SDS011;58242;51.250;-1.118;2024-01-16T14:31:51;3.20;;;2.70;;
70667;SDS011;58242;51.250;-1.118;2024-01-16T14:34:17;2.90;;;2.70;;
70667;SDS011;58242;51.250;-1.118;2024-01-16T14:36:45;2.90;;;2.70;;
70667;SDS011;58242;51.250;-1.118;2024-01-16T14:39:11;2.80;;;2.63;;
70667;SDS011;58242;51.250;-1.118;2024-01-16T14:41:41;4.88;;;3.08;;
70667;SDS011;58242;51.250;-1.118;2024-01-16T14:44:08;3.30;;;3.10;;
70667;SDS011;58242;51.250;-1.118;2024-01-16T14:46:34;3.20;;;3.00;;
70667;SDS011;58242;51.250;-1.118;2024-01-16T14:49:00;2.83;;;2.70;;
70667;SDS011;58242;51.250;-1.118;2024-01-16T14:51:25;3.85;;;3.13;;